Terminal Aerodrome Forecast
Issued by NWS Greer, SC

Home | Current Version | Previous Version | Text Only | Print | Product List | Glossary On
Versions: 1 2 3 4 5 6 7 8 9 10 11 12 13 14 15 16 17 18 19 20 21 22 23 24 25 26 27
000
FTUS42 KGSP 171700
TAFCLT
TAF
KCLT 171731Z 1718/1818 05010KT P6SM FEW250
     FM172000 08008KT P6SM FEW250
     FM180300 04007KT P6SM FEW040
     FM181000 04008KT P6SM BKN040=

USA.gov is the U.S. government's official web portal to all federal, state and local government web resources and services.